Time;durP1;ratioP1;P1;durP2;ratioP2;P2;SDS_P1;SDS_P2;PMS_P1;PMS_P2;Temp;Humidity;BMP_temperature;BMP_pressure;BME280_temperature;BME280_humidity;BME280_pressure;Samples;Min_cycle;Max_cycle;Signal;HPM_P1;HPM_P2
2022/01/29 00:03:31;;;;;;;9.77;3.47;;;;;;;;;;8359153;28;20072;-73
2022/01/29 00:07:34;;;;;;;6.40;2.70;;;;;;;;;;8361089;28;20041;-71
2022/01/29 00:11:37;;;;;;;6.32;2.40;;;;;;;;;;8355487;28;20052;-71
2022/01/29 00:15:41;;;;;;;4.97;2.78;;;;;;;;;;8359950;28;20477;-71
2022/01/29 00:19:44;;;;;;;6.00;2.83;;;;;;;;;;8363114;28;20045;-71
2022/01/29 00:23:46;;;;;;;7.43;3.42;;;;;;;;;;8356809;28;20044;-72
2022/01/29 00:27:49;;;;;;;7.25;3.28;;;;;;;;;;8361652;28;20385;-75
2022/01/29 00:31:53;;;;;;;12.73;4.28;;;;;;;;;;8348880;28;20045;-72
2022/01/29 00:35:56;;;;;;;12.45;4.05;;;;;;;;;;8349335;28;20041;-72
2022/01/29 00:39:59;;;;;;;7.78;3.40;;;;;;;;;;8362545;28;20049;-71
2022/01/29 00:44:02;;;;;;;9.18;3.60;;;;;;;;;;8360603;28;20045;-71
2022/01/29 00:48:07;;;;;;;8.20;3.67;;;;;;;;;;8352848;28;20052;-71
2022/01/29 00:52:10;;;;;;;10.02;3.58;;;;;;;;;;8356707;28;20038;-71
2022/01/29 00:56:12;;;;;;;11.32;3.97;;;;;;;;;;8361080;28;20048;-72
2022/01/29 01:00:17;;;;;;;12.35;3.47;;;;;;;;;;8364979;28;20155;-71
2022/01/29 01:04:21;;;;;;;6.28;3.00;;;;;;;;;;8354530;28;20055;-75
2022/01/29 01:08:24;;;;;;;9.80;3.60;;;;;;;;;;8335576;28;20049;-71
2022/01/29 01:12:27;;;;;;;11.57;3.63;;;;;;;;;;8335060;28;20050;-71
2022/01/29 01:16:31;;;;;;;8.40;3.78;;;;;;;;;;8348335;28;20524;-71
2022/01/29 01:20:35;;;;;;;10.52;4.03;;;;;;;;;;8347429;28;20091;-72
2022/01/29 01:24:38;;;;;;;11.48;3.30;;;;;;;;;;8354099;28;20052;-71
2022/01/29 01:28:41;;;;;;;9.88;2.97;;;;;;;;;;8353914;28;20140;-70
2022/01/29 01:32:43;;;;;;;12.10;3.05;;;;;;;;;;8365856;28;20049;-71
2022/01/29 01:36:52;;;;;;;6.50;2.90;;;;;;;;;;8359833;28;20041;-71
2022/01/29 01:40:59;;;;;;;7.10;3.05;;;;;;;;;;8359691;28;20041;-71
2022/01/29 01:45:02;;;;;;;10.15;3.33;;;;;;;;;;8362885;28;20044;-71
2022/01/29 01:49:05;;;;;;;10.80;3.10;;;;;;;;;;8360986;28;20045;-72
2022/01/29 01:53:11;;;;;;;11.45;2.97;;;;;;;;;;8346497;28;20436;-73
2022/01/29 01:57:18;;;;;;;8.57;3.08;;;;;;;;;;8352652;28;20052;-72
2022/01/29 02:01:21;;;;;;;8.43;3.38;;;;;;;;;;8355863;28;20506;-71
2022/01/29 02:05:25;;;;;;;8.57;3.53;;;;;;;;;;8348610;28;20099;-73
2022/01/29 02:09:30;;;;;;;8.40;3.05;;;;;;;;;;8354725;28;20045;-73
2022/01/29 02:13:33;;;;;;;10.82;3.20;;;;;;;;;;8343966;28;20046;-73
2022/01/29 02:17:35;;;;;;;7.57;2.83;;;;;;;;;;8353332;28;20103;-71
2022/01/29 02:21:40;;;;;;;7.70;3.40;;;;;;;;;;8352121;28;20052;-71
2022/01/29 02:25:44;;;;;;;8.35;3.63;;;;;;;;;;8360264;28;20072;-71
2022/01/29 02:29:49;;;;;;;9.45;3.75;;;;;;;;;;8359984;28;20507;-71
2022/01/29 02:33:51;;;;;;;9.73;3.40;;;;;;;;;;8352498;28;20075;-71
2022/01/29 02:37:55;;;;;;;8.40;2.92;;;;;;;;;;8358403;28;20077;-71
2022/01/29 02:41:59;;;;;;;10.60;3.45;;;;;;;;;;8342816;28;20049;-71
2022/01/29 02:46:07;;;;;;;10.45;3.33;;;;;;;;;;8350021;28;20060;-71
2022/01/29 02:50:09;;;;;;;12.02;3.50;;;;;;;;;;8357062;28;20132;-71
2022/01/29 02:54:14;;;;;;;6.80;3.42;;;;;;;;;;8342866;28;20049;-72
2022/01/29 02:58:16;;;;;;;6.47;3.00;;;;;;;;;;8353068;28;20485;-75
2022/01/29 03:02:19;;;;;;;13.00;3.28;;;;;;;;;;8353851;28;20073;-72
2022/01/29 03:06:21;;;;;;;8.73;3.83;;;;;;;;;;8350069;28;20056;-75
2022/01/29 03:10:28;;;;;;;8.07;3.25;;;;;;;;;;8355887;28;20049;-78
2022/01/29 03:14:30;;;;;;;9.13;3.65;;;;;;;;;;8350187;28;20044;-72
2022/01/29 03:18:33;;;;;;;12.23;4.10;;;;;;;;;;8345965;28;20041;-71
2022/01/29 03:22:36;;;;;;;10.38;4.53;;;;;;;;;;8356868;28;20056;-78
2022/01/29 03:26:40;;;;;;;9.50;4.25;;;;;;;;;;8356077;28;20053;-71
2022/01/29 03:30:42;;;;;;;8.63;4.00;;;;;;;;;;8347407;28;20081;-72
2022/01/29 03:34:45;;;;;;;8.90;4.18;;;;;;;;;;8355633;28;20041;-71
2022/01/29 03:38:47;;;;;;;10.05;3.90;;;;;;;;;;8349935;28;20045;-71
2022/01/29 03:43:00;;;;;;;15.70;3.97;;;;;;;;;;8358632;28;20168;-72
2022/01/29 03:47:03;;;;;;;9.45;4.88;;;;;;;;;;8357132;28;20041;-71
2022/01/29 03:51:06;;;;;;;14.05;4.30;;;;;;;;;;8358459;28;20041;-71
2022/01/29 03:55:08;;;;;;;11.52;4.45;;;;;;;;;;8349785;28;20046;-71
2022/01/29 03:59:13;;;;;;;9.18;4.32;;;;;;;;;;8355234;28;20040;-71
2022/01/29 04:03:15;;;;;;;13.30;3.85;;;;;;;;;;8352903;28;20045;-71
2022/01/29 04:07:18;;;;;;;11.98;4.78;;;;;;;;;;8348242;28;20064;-71
2022/01/29 04:11:22;;;;;;;13.13;4.60;;;;;;;;;;8350019;28;20421;-71
2022/01/29 04:15:26;;;;;;;8.15;3.55;;;;;;;;;;8342570;28;20052;-73
2022/01/29 04:19:28;;;;;;;13.93;4.32;;;;;;;;;;8350431;28;20049;-76
2022/01/29 04:23:31;;;;;;;9.95;4.45;;;;;;;;;;8349446;28;20500;-71
2022/01/29 04:27:37;;;;;;;11.40;3.83;;;;;;;;;;8357697;28;20053;-72
2022/01/29 04:31:47;;;;;;;16.58;4.65;;;;;;;;;;8349852;28;20048;-71
2022/01/29 04:35:50;;;;;;;12.05;5.20;;;;;;;;;;8357411;28;20144;-72
2022/01/29 04:39:52;;;;;;;21.13;7.35;;;;;;;;;;8336792;28;20542;-72
2022/01/29 04:43:55;;;;;;;13.23;5.93;;;;;;;;;;8347039;28;20045;-73
2022/01/29 04:47:59;;;;;;;24.35;11.27;;;;;;;;;;8347400;28;20053;-71
2022/01/29 04:52:02;;;;;;;16.95;7.30;;;;;;;;;;8349462;28;20060;-71
2022/01/29 04:56:05;;;;;;;19.75;8.18;;;;;;;;;;8355156;28;20048;-72
2022/01/29 05:00:11;;;;;;;11.90;4.82;;;;;;;;;;8359670;28;20045;-72
2022/01/29 05:04:15;;;;;;;10.95;5.40;;;;;;;;;;8355287;28;20515;-72
2022/01/29 05:08:18;;;;;;;17.92;9.65;;;;;;;;;;8363076;28;20425;-72
2022/01/29 05:12:26;;;;;;;25.30;6.10;;;;;;;;;;8361778;28;20546;-72
2022/01/29 05:16:54;;;;;;;12.90;3.58;;;;;;;;;;8362743;28;20045;-71
2022/01/29 05:29:38;;;;;;;25.80;11.38;;;;;;;;;;8352720;28;20049;-71
2022/01/29 05:33:41;;;;;;;21.15;8.93;;;;;;;;;;8353898;28;20102;-71
2022/01/29 05:37:46;;;;;;;13.88;7.95;;;;;;;;;;8360044;28;20049;-71
2022/01/29 05:41:48;;;;;;;20.23;8.43;;;;;;;;;;8366593;28;20052;-74
2022/01/29 05:45:51;;;;;;;11.18;5.28;;;;;;;;;;8347784;28;20053;-74
2022/01/29 05:49:53;;;;;;;13.00;5.35;;;;;;;;;;8339203;28;20045;-73
2022/01/29 05:53:58;;;;;;;10.25;5.05;;;;;;;;;;8346884;28;20042;-74
2022/01/29 05:58:00;;;;;;;17.27;6.53;;;;;;;;;;8355361;28;20053;-74
2022/01/29 06:02:03;;;;;;;28.92;12.65;;;;;;;;;;8353932;28;20091;-73
2022/01/29 06:06:06;;;;;;;13.40;7.82;;;;;;;;;;8340768;28;20470;-73
2022/01/29 06:10:10;;;;;;;19.85;7.80;;;;;;;;;;8351755;28;20082;-74
2022/01/29 06:14:13;;;;;;;24.90;11.98;;;;;;;;;;8352376;28;20049;-73
2022/01/29 06:18:19;;;;;;;31.25;12.95;;;;;;;;;;8354756;28;20037;-75
2022/01/29 06:22:22;;;;;;;28.50;12.10;;;;;;;;;;8346773;28;20061;-73
2022/01/29 06:26:26;;;;;;;11.80;5.85;;;;;;;;;;8357147;28;20045;-78
2022/01/29 06:30:28;;;;;;;10.77;4.82;;;;;;;;;;8353251;28;20077;-73
2022/01/29 06:34:31;;;;;;;19.95;5.32;;;;;;;;;;8347049;28;20045;-73
2022/01/29 06:38:34;;;;;;;14.32;4.65;;;;;;;;;;8349550;28;20045;-74
2022/01/29 06:42:39;;;;;;;14.60;5.63;;;;;;;;;;8353428;28;20048;-73
2022/01/29 06:46:41;;;;;;;16.23;6.38;;;;;;;;;;8351621;28;20111;-75
2022/01/29 06:50:44;;;;;;;14.93;5.70;;;;;;;;;;8355530;28;20045;-74
2022/01/29 06:54:47;;;;;;;18.92;6.75;;;;;;;;;;8356324;28;20045;-74
2022/01/29 06:58:51;;;;;;;17.10;6.53;;;;;;;;;;8354376;28;20045;-78
2022/01/29 07:02:54;;;;;;;12.05;6.30;;;;;;;;;;8352439;28;20079;-74
2022/01/29 07:06:57;;;;;;;14.23;5.65;;;;;;;;;;8354774;28;20041;-74
2022/01/29 07:10:59;;;;;;;13.52;5.97;;;;;;;;;;8347190;28;20400;-73
2022/01/29 07:15:04;;;;;;;13.20;4.70;;;;;;;;;;8353814;28;20049;-73
2022/01/29 07:19:06;;;;;;;10.05;5.20;;;;;;;;;;8341112;28;20049;-74
2022/01/29 07:23:09;;;;;;;18.45;6.13;;;;;;;;;;8349205;28;20116;-73
2022/01/29 07:27:12;;;;;;;19.40;6.68;;;;;;;;;;8347014;28;20645;-72
2022/01/29 07:31:16;;;;;;;20.73;8.00;;;;;;;;;;8348868;28;20099;-72
2022/01/29 07:35:19;;;;;;;23.08;8.27;;;;;;;;;;8347960;28;20045;-72
2022/01/29 07:39:22;;;;;;;18.63;8.00;;;;;;;;;;8354914;28;20060;-73
2022/01/29 07:43:25;;;;;;;21.30;9.10;;;;;;;;;;8348573;28;20053;-73
2022/01/29 07:47:30;;;;;;;20.85;8.02;;;;;;;;;;8347735;28;20049;-72
2022/01/29 07:51:34;;;;;;;19.92;7.38;;;;;;;;;;8346224;28;20111;-73
2022/01/29 07:55:37;;;;;;;26.48;9.43;;;;;;;;;;8353597;28;20128;-73
2022/01/29 07:59:40;;;;;;;23.65;9.68;;;;;;;;;;8328778;28;20469;-73
2022/01/29 08:03:48;;;;;;;14.55;7.07;;;;;;;;;;8359388;28;20056;-74
2022/01/29 08:07:51;;;;;;;25.73;8.88;;;;;;;;;;8348446;28;20049;-74
2022/01/29 08:11:54;;;;;;;22.60;7.65;;;;;;;;;;8346900;28;20473;-74
2022/01/29 08:15:56;;;;;;;22.42;7.20;;;;;;;;;;8351051;28;20052;-74
2022/01/29 08:20:01;;;;;;;27.63;9.88;;;;;;;;;;8351184;28;20052;-73
2022/01/29 08:24:03;;;;;;;25.13;9.48;;;;;;;;;;8347707;28;20728;-74
2022/01/29 08:28:07;;;;;;;24.63;9.20;;;;;;;;;;8351457;28;20060;-74
2022/01/29 08:32:10;;;;;;;27.25;10.30;;;;;;;;;;8355168;28;20041;-73
2022/01/29 08:36:15;;;;;;;22.45;9.45;;;;;;;;;;8344684;28;20041;-73
2022/01/29 08:40:18;;;;;;;25.45;10.40;;;;;;;;;;8359039;28;20049;-73
2022/01/29 08:44:21;;;;;;;21.33;9.57;;;;;;;;;;8360292;28;20500;-73
2022/01/29 08:48:24;;;;;;;36.60;14.52;;;;;;;;;;8364574;28;20488;-74
2022/01/29 08:52:28;;;;;;;29.55;11.48;;;;;;;;;;8357216;28;20455;-73
2022/01/29 08:56:32;;;;;;;22.80;7.78;;;;;;;;;;8353591;28;20049;-73
2022/01/29 09:00:35;;;;;;;21.88;7.47;;;;;;;;;;8353671;28;20116;-73
2022/01/29 09:04:37;;;;;;;19.88;6.65;;;;;;;;;;8354324;28;20374;-73
2022/01/29 09:08:46;;;;;;;21.55;6.05;;;;;;;;;;8356655;28;20045;-73
2022/01/29 09:12:48;;;;;;;18.65;7.78;;;;;;;;;;8356876;28;20114;-74
2022/01/29 09:16:51;;;;;;;22.52;8.65;;;;;;;;;;8349861;28;20049;-72
2022/01/29 09:20:54;;;;;;;19.98;8.07;;;;;;;;;;8349595;28;20127;-72
2022/01/29 09:24:59;;;;;;;24.92;7.88;;;;;;;;;;8337824;28;20057;-72
2022/01/29 09:29:03;;;;;;;25.15;9.43;;;;;;;;;;8335007;28;20054;-73
2022/01/29 09:33:09;;;;;;;22.45;7.47;;;;;;;;;;8334785;28;20077;-73
2022/01/29 09:37:13;;;;;;;25.13;8.18;;;;;;;;;;8362081;28;20049;-72
2022/01/29 09:41:25;;;;;;;27.98;10.48;;;;;;;;;;8366288;28;20467;-72
2022/01/29 09:45:28;;;;;;;19.33;6.77;;;;;;;;;;8360336;28;20049;-72
2022/01/29 09:49:34;;;;;;;37.60;15.80;;;;;;;;;;8334459;28;20469;-73
2022/01/29 09:53:38;;;;;;;23.52;7.00;;;;;;;;;;8334974;28;20148;-72
2022/01/29 09:57:44;;;;;;;20.38;6.65;;;;;;;;;;8340229;28;20196;-72
2022/01/29 10:01:49;;;;;;;17.83;6.03;;;;;;;;;;8335300;28;20041;-72
2022/01/29 10:05:55;;;;;;;25.42;9.52;;;;;;;;;;8334206;28;20069;-73
2022/01/29 10:10:01;;;;;;;21.88;6.18;;;;;;;;;;8334448;28;20049;-72
2022/01/29 10:14:06;;;;;;;18.90;6.78;;;;;;;;;;8352672;28;20637;-72
2022/01/29 10:18:10;;;;;;;20.85;5.68;;;;;;;;;;8365258;28;20044;-72
2022/01/29 10:22:23;;;;;;;21.17;6.47;;;;;;;;;;8366107;28;20065;-76
2022/01/29 10:26:28;;;;;;;27.13;6.53;;;;;;;;;;8364686;28;20443;-72
2022/01/29 10:30:33;;;;;;;26.33;9.50;;;;;;;;;;8364772;28;20300;-72
2022/01/29 10:34:37;;;;;;;20.27;6.95;;;;;;;;;;8364828;28;20041;-72
2022/01/29 10:38:55;;;;;;;22.52;8.27;;;;;;;;;;8365156;28;20474;-72
2022/01/29 10:42:58;;;;;;;23.38;7.22;;;;;;;;;;8360856;28;20115;-71
2022/01/29 10:47:02;;;;;;;26.35;7.28;;;;;;;;;;8363373;28;20214;-73
2022/01/29 10:51:14;;;;;;;26.00;7.40;;;;;;;;;;8360912;28;20048;-72
2022/01/29 10:55:18;;;;;;;20.20;7.20;;;;;;;;;;8361333;28;20055;-72
2022/01/29 10:59:21;;;;;;;27.38;7.40;;;;;;;;;;8364313;28;20106;-72
2022/01/29 11:03:26;;;;;;;24.98;6.10;;;;;;;;;;8363842;28;20045;-72
2022/01/29 11:07:30;;;;;;;29.30;7.68;;;;;;;;;;8364608;28;20099;-73
2022/01/29 11:11:35;;;;;;;22.73;6.20;;;;;;;;;;8363738;28;20040;-72
2022/01/29 11:15:38;;;;;;;21.20;5.75;;;;;;;;;;8359973;28;20048;-72
2022/01/29 11:19:43;;;;;;;33.90;11.13;;;;;;;;;;8358998;28;20041;-72
2022/01/29 11:23:46;;;;;;;21.70;9.02;;;;;;;;;;8351383;28;20045;-73
2022/01/29 11:28:13;;;;;;;32.63;9.40;;;;;;;;;;8344782;28;20136;-73
2022/01/29 11:32:36;;;;;;;27.25;7.90;;;;;;;;;;8341204;28;20481;-72
2022/01/29 11:37:05;;;;;;;22.17;6.78;;;;;;;;;;8330712;28;20465;-72
2022/01/29 11:41:13;;;;;;;22.75;8.38;;;;;;;;;;8319322;28;20053;-72
2022/01/29 11:45:42;;;;;;;27.52;10.15;;;;;;;;;;8331324;28;20052;-72
2022/01/29 11:49:45;;;;;;;14.73;6.10;;;;;;;;;;8358384;28;20045;-72
2022/01/29 11:53:58;;;;;;;17.35;7.75;;;;;;;;;;8355147;28;20049;-72
2022/01/29 11:58:21;;;;;;;20.92;7.40;;;;;;;;;;8355108;28;20045;-72
2022/01/29 12:02:44;;;;;;;24.98;7.78;;;;;;;;;;8352046;28;20048;-73
2022/01/29 12:07:17;;;;;;;21.23;7.47;;;;;;;;;;8356511;28;20484;-74
2022/01/29 12:11:23;;;;;;;23.20;8.55;;;;;;;;;;8310175;28;20402;-73
2022/01/29 12:15:44;;;;;;;19.30;6.60;;;;;;;;;;8350375;28;20052;-73
2022/01/29 12:19:48;;;;;;;18.90;6.50;;;;;;;;;;8330642;28;20060;-77
2022/01/29 12:23:52;;;;;;;22.98;7.60;;;;;;;;;;8331052;28;20090;-73
2022/01/29 12:27:58;;;;;;;21.17;8.05;;;;;;;;;;8329993;28;20049;-73
2022/01/29 12:32:00;;;;;;;19.90;7.55;;;;;;;;;;8354315;28;20041;-73
2022/01/29 12:36:05;;;;;;;19.23;7.60;;;;;;;;;;8361952;28;20053;-73
2022/01/29 12:40:19;;;;;;;22.85;7.70;;;;;;;;;;8362362;28;20530;-73
2022/01/29 12:44:25;;;;;;;23.42;8.85;;;;;;;;;;8361905;28;20041;-74
2022/01/29 12:48:27;;;;;;;28.63;10.30;;;;;;;;;;8361725;28;20106;-73
2022/01/29 12:52:31;;;;;;;16.92;8.35;;;;;;;;;;8362275;28;20419;-73
2022/01/29 12:56:35;;;;;;;23.25;8.95;;;;;;;;;;8361727;28;20052;-73
2022/01/29 13:00:40;;;;;;;19.60;7.53;;;;;;;;;;8359885;28;20154;-76
2022/01/29 13:04:46;;;;;;;23.95;9.32;;;;;;;;;;8352354;28;20049;-73
2022/01/29 13:09:12;;;;;;;23.58;8.10;;;;;;;;;;8333559;28;20049;-73
2022/01/29 13:13:28;;;;;;;21.98;9.55;;;;;;;;;;8338666;28;20096;-73
2022/01/29 13:17:34;;;;;;;30.38;9.88;;;;;;;;;;8361000;28;20045;-74
2022/01/29 13:21:52;;;;;;;19.88;8.63;;;;;;;;;;8360468;28;20508;-75
2022/01/29 13:26:00;;;;;;;28.50;8.68;;;;;;;;;;8337228;28;20040;-74
2022/01/29 13:30:27;;;;;;;27.77;10.82;;;;;;;;;;8355917;28;20131;-74
2022/01/29 13:34:36;;;;;;;28.02;9.27;;;;;;;;;;8354150;28;20558;-74
2022/01/29 13:38:40;;;;;;;19.38;9.35;;;;;;;;;;8348479;28;20099;-74
2022/01/29 13:42:59;;;;;;;20.30;9.25;;;;;;;;;;8341531;28;20103;-75
2022/01/29 13:47:12;;;;;;;34.90;9.93;;;;;;;;;;8340332;28;20569;-74
2022/01/29 13:51:29;;;;;;;24.77;11.40;;;;;;;;;;8345590;28;20130;-73
2022/01/29 13:55:34;;;;;;;22.48;11.18;;;;;;;;;;8347902;28;20061;-73
2022/01/29 13:59:39;;;;;;;28.88;10.73;;;;;;;;;;8354978;28;20044;-72
2022/01/29 14:03:47;;;;;;;60.28;20.75;;;;;;;;;;8340826;28;20408;-73
2022/01/29 14:07:54;;;;;;;39.13;13.00;;;;;;;;;;8337683;28;20057;-73
2022/01/29 14:12:20;;;;;;;35.85;14.73;;;;;;;;;;8351756;28;20118;-78
2022/01/29 14:16:27;;;;;;;32.17;11.85;;;;;;;;;;8349658;28;20069;-73
2022/01/29 14:20:36;;;;;;;75.40;31.02;;;;;;;;;;8346474;28;20087;-74
2022/01/29 14:25:00;;;;;;;39.03;16.02;;;;;;;;;;8347226;28;20497;-75
2022/01/29 14:29:09;;;;;;;57.20;20.08;;;;;;;;;;8343504;28;20056;-74
2022/01/29 14:33:12;;;;;;;47.95;17.67;;;;;;;;;;8347119;28;20447;-74
2022/01/29 14:37:15;;;;;;;34.05;17.73;;;;;;;;;;8346221;28;20132;-74
2022/01/29 14:41:20;;;;;;;32.15;13.18;;;;;;;;;;8354373;28;20549;-74
2022/01/29 14:45:27;;;;;;;30.38;13.25;;;;;;;;;;8336254;28;20420;-74
2022/01/29 14:49:30;;;;;;;46.78;18.30;;;;;;;;;;8341619;28;20045;-74
2022/01/29 14:53:33;;;;;;;68.57;25.75;;;;;;;;;;8348918;28;20119;-75
2022/01/29 14:57:37;;;;;;;43.88;17.73;;;;;;;;;;8347324;28;20053;-74
2022/01/29 15:01:41;;;;;;;36.83;16.65;;;;;;;;;;8345697;28;20049;-74
2022/01/29 15:05:44;;;;;;;41.65;16.35;;;;;;;;;;8351211;28;20481;-74
2022/01/29 15:09:48;;;;;;;42.30;16.67;;;;;;;;;;8346489;28;20045;-74
2022/01/29 15:13:54;;;;;;;51.92;20.65;;;;;;;;;;8352020;28;20536;-74
2022/01/29 15:17:57;;;;;;;33.17;14.05;;;;;;;;;;8352042;28;20448;-73
2022/01/29 15:22:01;;;;;;;45.60;20.70;;;;;;;;;;8348628;28;20073;-73
2022/01/29 15:26:05;;;;;;;29.95;13.55;;;;;;;;;;8338255;28;20053;-73
2022/01/29 15:30:12;;;;;;;36.03;14.80;;;;;;;;;;8347503;28;20060;-74
2022/01/29 15:34:15;;;;;;;59.55;25.58;;;;;;;;;;8339725;28;20136;-74
2022/01/29 15:38:28;;;;;;;38.28;16.73;;;;;;;;;;8351244;28;20045;-74
2022/01/29 15:42:34;;;;;;;39.33;15.15;;;;;;;;;;8345389;28;20049;-74
2022/01/29 15:46:39;;;;;;;36.67;17.48;;;;;;;;;;8356378;28;20049;-74
2022/01/29 15:50:44;;;;;;;30.45;14.07;;;;;;;;;;8352175;28;20056;-74
2022/01/29 15:54:52;;;;;;;36.72;17.05;;;;;;;;;;8355549;28;20468;-73
2022/01/29 15:58:57;;;;;;;45.75;20.88;;;;;;;;;;8356397;28;20053;-73
2022/01/29 16:03:02;;;;;;;36.53;20.55;;;;;;;;;;8337553;28;20046;-73
2022/01/29 16:07:05;;;;;;;54.95;25.85;;;;;;;;;;8349080;28;20171;-73
2022/01/29 16:11:09;;;;;;;144.80;64.63;;;;;;;;;;8340370;28;20124;-73
2022/01/29 16:15:16;;;;;;;39.13;18.73;;;;;;;;;;8353145;28;20091;-73
2022/01/29 16:19:32;;;;;;;34.78;15.27;;;;;;;;;;8343274;28;20044;-74
2022/01/29 16:24:18;;;;;;;34.83;17.48;;;;;;;;;;8350078;28;20041;-74
2022/01/29 16:28:22;;;;;;;42.80;16.50;;;;;;;;;;8345923;28;20064;-75
2022/01/29 16:32:24;;;;;;;40.47;19.83;;;;;;;;;;8345141;28;20095;-79
2022/01/29 16:36:35;;;;;;;34.20;16.48;;;;;;;;;;8343732;28;20131;-72
2022/01/29 16:40:38;;;;;;;41.95;18.73;;;;;;;;;;8352137;28;20388;-72
2022/01/29 16:44:44;;;;;;;43.20;22.25;;;;;;;;;;8350263;28;20485;-75
2022/01/29 16:48:51;;;;;;;34.75;14.90;;;;;;;;;;8348893;28;20118;-71
2022/01/29 16:52:57;;;;;;;30.67;15.95;;;;;;;;;;8341941;28;20049;-72
2022/01/29 16:57:00;;;;;;;34.90;15.18;;;;;;;;;;8351579;28;20069;-72
2022/01/29 17:01:07;;;;;;;53.92;25.33;;;;;;;;;;8354408;28;20045;-72
2022/01/29 17:05:19;;;;;;;34.00;18.00;;;;;;;;;;8348019;28;20206;-72
2022/01/29 17:09:27;;;;;;;44.05;20.60;;;;;;;;;;8358000;28;20056;-71
2022/01/29 17:13:33;;;;;;;30.60;16.10;;;;;;;;;;8352961;28;20051;-72
2022/01/29 17:17:45;;;;;;;32.83;18.33;;;;;;;;;;8357618;28;20059;-72
2022/01/29 17:22:04;;;;;;;28.98;15.18;;;;;;;;;;8348429;28;20064;-72
2022/01/29 17:26:49;;;;;;;41.83;19.45;;;;;;;;;;8355874;28;20099;-74
2022/01/29 17:31:55;;;;;;;28.42;14.85;;;;;;;;;;8340003;28;20056;-71
2022/01/29 17:36:21;;;;;;;25.23;13.32;;;;;;;;;;8351038;28;20037;-72
2022/01/29 17:40:45;;;;;;;22.75;12.63;;;;;;;;;;8352447;28;20526;-72
2022/01/29 17:50:04;;;;;;;31.63;16.63;;;;;;;;;;8350647;28;20096;-72
2022/01/29 17:54:07;;;;;;;25.27;14.60;;;;;;;;;;8344947;28;20536;-72
2022/01/29 17:58:13;;;;;;;33.50;17.98;;;;;;;;;;8345016;28;20052;-72
2022/01/29 18:02:20;;;;;;;37.25;19.15;;;;;;;;;;8355967;28;20065;-72
2022/01/29 18:06:27;;;;;;;23.58;13.43;;;;;;;;;;8338759;28;20041;-71
2022/01/29 18:10:31;;;;;;;35.65;18.40;;;;;;;;;;8355476;28;20045;-72
2022/01/29 18:14:40;;;;;;;35.65;16.73;;;;;;;;;;8351944;28;20485;-73
2022/01/29 18:18:47;;;;;;;41.80;19.33;;;;;;;;;;8352983;28;20056;-71
2022/01/29 18:22:52;;;;;;;27.50;13.88;;;;;;;;;;8357284;28;20391;-72
2022/01/29 18:27:02;;;;;;;26.05;14.02;;;;;;;;;;8341079;28;20049;-72
2022/01/29 18:31:07;;;;;;;22.60;12.77;;;;;;;;;;8342911;28;20053;-72
2022/01/29 18:35:19;;;;;;;24.30;15.02;;;;;;;;;;8355071;28;20049;-72
2022/01/29 18:39:31;;;;;;;21.50;13.57;;;;;;;;;;8353154;28;20056;-71
2022/01/29 18:44:02;;;;;;;25.45;13.75;;;;;;;;;;8339498;28;20209;-72
2022/01/29 18:48:11;;;;;;;24.15;13.43;;;;;;;;;;8357331;28;20060;-72
2022/01/29 18:52:15;;;;;;;21.40;11.52;;;;;;;;;;8352267;28;20045;-72
2022/01/29 18:56:28;;;;;;;25.50;14.07;;;;;;;;;;8348698;28;20041;-71
2022/01/29 19:00:33;;;;;;;33.83;15.95;;;;;;;;;;8353280;28;20037;-72
2022/01/29 19:04:36;;;;;;;33.53;18.38;;;;;;;;;;8355756;28;20049;-72
2022/01/29 19:08:44;;;;;;;30.17;14.88;;;;;;;;;;8351911;28;20052;-72
2022/01/29 19:12:53;;;;;;;27.30;13.05;;;;;;;;;;8348935;28;20045;-71
2022/01/29 19:17:00;;;;;;;67.97;23.73;;;;;;;;;;8348964;28;20469;-71
2022/01/29 19:21:09;;;;;;;63.65;25.90;;;;;;;;;;8343410;28;20049;-74
2022/01/29 19:25:22;;;;;;;44.63;20.25;;;;;;;;;;8354192;28;20060;-72
2022/01/29 19:29:36;;;;;;;40.75;19.50;;;;;;;;;;8353638;28;20061;-71
2022/01/29 19:33:47;;;;;;;36.83;18.25;;;;;;;;;;8348321;28;20041;-72
2022/01/29 19:37:55;;;;;;;42.47;19.77;;;;;;;;;;8353653;28;20581;-79
2022/01/29 19:42:04;;;;;;;51.72;22.20;;;;;;;;;;8348332;28;20515;-72
2022/01/29 19:46:11;;;;;;;36.00;17.48;;;;;;;;;;8351404;28;20041;-72
2022/01/29 19:50:21;;;;;;;28.80;13.10;;;;;;;;;;8348336;28;20082;-72
2022/01/29 19:54:33;;;;;;;26.85;13.93;;;;;;;;;;8352091;28;20095;-72
2022/01/29 19:58:42;;;;;;;46.33;19.08;;;;;;;;;;8347305;28;20533;-72
2022/01/29 20:02:54;;;;;;;28.08;14.13;;;;;;;;;;8356453;28;20086;-72
2022/01/29 20:07:00;;;;;;;24.45;12.55;;;;;;;;;;8347814;28;20049;-72
2022/01/29 20:11:07;;;;;;;37.92;17.70;;;;;;;;;;8351942;28;20045;-74
2022/01/29 20:15:13;;;;;;;30.33;15.73;;;;;;;;;;8349412;28;20052;-72
2022/01/29 20:19:28;;;;;;;30.88;14.32;;;;;;;;;;8350459;28;20052;-72
2022/01/29 20:23:34;;;;;;;26.23;12.43;;;;;;;;;;8357393;28;20045;-72
2022/01/29 20:27:48;;;;;;;28.77;16.45;;;;;;;;;;8349569;28;20044;-73
2022/01/29 20:31:58;;;;;;;25.15;11.52;;;;;;;;;;8358310;28;20041;-72
2022/01/29 20:36:17;;;;;;;30.80;16.50;;;;;;;;;;8344748;28;20046;-72
2022/01/29 20:40:22;;;;;;;24.80;13.75;;;;;;;;;;8349277;28;20045;-72
2022/01/29 20:44:36;;;;;;;27.92;14.70;;;;;;;;;;8354726;28;20493;-72
2022/01/29 20:48:45;;;;;;;21.67;11.30;;;;;;;;;;8353900;28;20126;-74
2022/01/29 20:52:55;;;;;;;17.85;11.45;;;;;;;;;;8357041;28;20473;-76
2022/01/29 20:57:01;;;;;;;36.03;20.05;;;;;;;;;;8353595;28;20069;-72
2022/01/29 21:01:09;;;;;;;31.10;13.05;;;;;;;;;;8344811;28;20068;-74
2022/01/29 21:05:16;;;;;;;22.48;11.32;;;;;;;;;;8340934;28;20045;-73
2022/01/29 21:09:26;;;;;;;41.55;18.38;;;;;;;;;;8347589;28;20053;-73
2022/01/29 21:13:33;;;;;;;24.90;12.93;;;;;;;;;;8348708;28;20475;-73
2022/01/29 21:17:55;;;;;;;16.55;9.68;;;;;;;;;;8344857;28;20099;-74
2022/01/29 21:22:00;;;;;;;27.55;14.10;;;;;;;;;;8354189;28;20038;-75
2022/01/29 21:26:05;;;;;;;22.40;11.75;;;;;;;;;;8358809;28;20045;-77
2022/01/29 21:30:11;;;;;;;33.88;14.73;;;;;;;;;;8360314;28;20153;-75
2022/01/29 21:34:16;;;;;;;107.78;29.15;;;;;;;;;;8354873;28;20079;-75
2022/01/29 21:38:23;;;;;;;21.88;13.43;;;;;;;;;;8353932;28;20147;-74
2022/01/29 21:42:32;;;;;;;26.30;12.23;;;;;;;;;;8364608;28;20065;-74
2022/01/29 21:46:35;;;;;;;32.00;14.27;;;;;;;;;;8360223;28;20413;-74
2022/01/29 21:50:44;;;;;;;19.58;9.15;;;;;;;;;;8351513;28;20069;-74
2022/01/29 21:54:54;;;;;;;27.40;13.70;;;;;;;;;;8342569;28;20052;-74
2022/01/29 21:59:02;;;;;;;17.95;8.38;;;;;;;;;;8359271;28;20041;-74
2022/01/29 22:03:07;;;;;;;20.63;10.30;;;;;;;;;;8338454;28;20049;-74
2022/01/29 22:07:18;;;;;;;18.00;10.75;;;;;;;;;;8337630;28;20071;-73
2022/01/29 22:11:28;;;;;;;16.55;8.55;;;;;;;;;;8344793;28;20042;-73
2022/01/29 22:15:34;;;;;;;14.93;8.80;;;;;;;;;;8337553;28;20049;-72
2022/01/29 22:19:37;;;;;;;14.75;8.05;;;;;;;;;;8355962;28;20056;-75
2022/01/29 22:23:40;;;;;;;16.25;8.90;;;;;;;;;;8337699;28;20052;-73
2022/01/29 22:27:43;;;;;;;20.10;10.75;;;;;;;;;;8344164;28;20064;-73
2022/01/29 22:31:48;;;;;;;15.73;9.32;;;;;;;;;;8362250;28;20061;-73
2022/01/29 22:35:51;;;;;;;13.30;8.43;;;;;;;;;;8350511;28;20044;-73
2022/01/29 22:39:55;;;;;;;14.48;8.02;;;;;;;;;;8359262;28;20102;-73
2022/01/29 22:43:59;;;;;;;13.35;7.30;;;;;;;;;;8352027;28;20045;-73
2022/01/29 22:48:04;;;;;;;11.55;7.38;;;;;;;;;;8344933;28;20049;-72
2022/01/29 22:52:07;;;;;;;13.82;9.02;;;;;;;;;;8347926;28;20468;-74
2022/01/29 22:56:10;;;;;;;14.63;8.50;;;;;;;;;;8359057;28;20052;-75
2022/01/29 23:00:16;;;;;;;13.20;7.28;;;;;;;;;;8360101;28;20044;-73
2022/01/29 23:04:23;;;;;;;13.00;8.10;;;;;;;;;;8357165;28;20460;-73
2022/01/29 23:08:26;;;;;;;14.27;8.07;;;;;;;;;;8350659;28;20072;-73
2022/01/29 23:12:38;;;;;;;13.68;7.43;;;;;;;;;;8354595;28;20456;-74
2022/01/29 23:16:47;;;;;;;15.07;8.00;;;;;;;;;;8362751;28;20045;-73
2022/01/29 23:20:55;;;;;;;11.98;7.13;;;;;;;;;;8339070;28;20508;-73
2022/01/29 23:25:01;;;;;;;10.25;6.78;;;;;;;;;;8351608;28;20045;-73
2022/01/29 23:29:07;;;;;;;15.85;7.97;;;;;;;;;;8354412;28;20053;-73
2022/01/29 23:33:35;;;;;;;14.52;6.38;;;;;;;;;;8346121;28;20045;-73
2022/01/29 23:37:54;;;;;;;11.68;7.15;;;;;;;;;;8340477;28;20050;-73
2022/01/29 23:42:15;;;;;;;11.27;6.00;;;;;;;;;;8345916;28;20041;-72
2022/01/29 23:46:40;;;;;;;8.85;5.13;;;;;;;;;;8344163;28;20457;-74
2022/01/29 23:50:42;;;;;;;9.15;5.72;;;;;;;;;;8342868;28;20049;-74
2022/01/29 23:54:50;;;;;;;11.70;5.35;;;;;;;;;;8355636;28;20045;-73
2022/01/29 23:58:52;;;;;;;9.55;4.65;;;;;;;;;;8342310;28;20056;-72
